map of SNR home
SNR - Airport
Location
City:  St-Nazaire, Pays de la Loire, France
Name:Montoir
ICAO:LFRZ
IATA:SNR

Details
Type:Airport (Aerodrome, Airfield)
Use:Public/Civil
Latitude:4718'38"N (47.310556)
Longitude:209'24"W (-2.156666)
Elevation:13 ft (4 m)
Variation:0.34W (WMM2015v2 magnetic declination)
0.17 annual change
Runways:1
Longest:7874 × 148 ft (2400 × 45 m)

Time
Time Zone:UTC+1 (DST+2)
Local Time:

Weather
METAR:LFRZ 041400Z AUTO 17019KT 2300 -RA BR OVC005 07/06 Q1020 TEMPO 18016G28KT BECMG 4000 BR
TAF:LFRZ 041100Z 0412/0512 18016G28KT 5000 -RA SCT008 BKN015
TEMPO 0412/0415 3000 RA BKN005
BECMG 0415/0417 17010KT 4000 BR BKN004
TEMPO 0418/0508 VRB03KT 2000 BR OVC002
TEMPO 0500/0506 0500 FG VV///
BECMG 0508/0510 8000 NSW BKN010

Related Locations
Nearby:
Farthest:OAM: 12075 mi / 19433 km
Oamaru, OTA, NZ

Find:

   beyond  
but within

Other Information
Maps:
NOTAMs:
Links:
Sources:

  
  • flag of France
  • flag of Pays de la Loire
  

Sectional Chart

Flight Planning
at skyvector.com

Satellite Image

Google Maps Satellite view

 

Copyright © 2004-2019 Karl L. Swartz. All rights reserved.
The Great Circle Mapper name and logo are trademarks of the Great Circle Mapper.
All other trademarks mentioned herein belong to their respective owners.
Please see credits for attibutions and further copyright information.

  Follow gcmap on Facebook Follow gcmap on Twitter GCmap on LinkedIn

hCard Microformat

Geo Microformat